sensor_id;sensor_type;location;lat;lon;timestamp;P1;durP1;ratioP1;P2;durP2;ratioP2
12625;SDS011;6378;42.684;23.372;2023-11-22T00:01:04;53.50;;;35.57;;
12625;SDS011;6378;42.684;23.372;2023-11-22T00:03:30;49.20;;;34.73;;
12625;SDS011;6378;42.684;23.372;2023-11-22T00:05:56;49.20;;;33.00;;
12625;SDS011;6378;42.684;23.372;2023-11-22T00:08:22;47.97;;;33.53;;
12625;SDS011;6378;42.684;23.372;2023-11-22T00:10:47;50.63;;;33.60;;
12625;SDS011;6378;42.684;23.372;2023-11-22T00:13:13;47.77;;;33.50;;
12625;SDS011;6378;42.684;23.372;2023-11-22T00:15:39;47.20;;;33.43;;
12625;SDS011;6378;42.684;23.372;2023-11-22T00:18:05;49.90;;;33.60;;
12625;SDS011;6378;42.684;23.372;2023-11-22T00:20:30;47.17;;;32.37;;
12625;SDS011;6378;42.684;23.372;2023-11-22T00:22:56;44.77;;;32.70;;
12625;SDS011;6378;42.684;23.372;2023-11-22T00:25:22;45.27;;;31.90;;
12625;SDS011;6378;42.684;23.372;2023-11-22T00:27:47;44.20;;;31.33;;
12625;SDS011;6378;42.684;23.372;2023-11-22T00:30:13;46.50;;;31.23;;
12625;SDS011;6378;42.684;23.372;2023-11-22T00:32:39;46.30;;;31.23;;
12625;SDS011;6378;42.684;23.372;2023-11-22T00:35:05;46.93;;;32.70;;
12625;SDS011;6378;42.684;23.372;2023-11-22T00:37:32;47.67;;;32.47;;
12625;SDS011;6378;42.684;23.372;2023-11-22T00:39:59;47.83;;;32.80;;
12625;SDS011;6378;42.684;23.372;2023-11-22T00:42:25;49.23;;;33.97;;
12625;SDS011;6378;42.684;23.372;2023-11-22T00:44:52;43.77;;;31.83;;
12625;SDS011;6378;42.684;23.372;2023-11-22T00:47:18;45.77;;;31.53;;
12625;SDS011;6378;42.684;23.372;2023-11-22T00:49:44;41.93;;;31.73;;
12625;SDS011;6378;42.684;23.372;2023-11-22T00:52:09;46.03;;;32.13;;
12625;SDS011;6378;42.684;23.372;2023-11-22T00:54:35;48.13;;;32.17;;
12625;SDS011;6378;42.684;23.372;2023-11-22T00:57:00;45.70;;;30.97;;
12625;SDS011;6378;42.684;23.372;2023-11-22T00:59:26;45.57;;;32.63;;
12625;SDS011;6378;42.684;23.372;2023-11-22T01:01:51;43.33;;;31.37;;
12625;SDS011;6378;42.684;23.372;2023-11-22T01:04:17;49.23;;;33.27;;
12625;SDS011;6378;42.684;23.372;2023-11-22T01:06:42;48.90;;;33.10;;
12625;SDS011;6378;42.684;23.372;2023-11-22T01:09:08;45.00;;;32.17;;
12625;SDS011;6378;42.684;23.372;2023-11-22T01:11:38;43.37;;;30.67;;
12625;SDS011;6378;42.684;23.372;2023-11-22T01:14:04;46.07;;;32.03;;
12625;SDS011;6378;42.684;23.372;2023-11-22T01:16:30;47.03;;;32.40;;
12625;SDS011;6378;42.684;23.372;2023-11-22T01:18:55;44.93;;;31.57;;
12625;SDS011;6378;42.684;23.372;2023-11-22T01:21:21;47.50;;;32.17;;
12625;SDS011;6378;42.684;23.372;2023-11-22T01:23:46;46.13;;;32.83;;
12625;SDS011;6378;42.684;23.372;2023-11-22T01:26:12;42.50;;;31.03;;
12625;SDS011;6378;42.684;23.372;2023-11-22T01:28:37;45.50;;;32.53;;
12625;SDS011;6378;42.684;23.372;2023-11-22T01:31:05;47.67;;;32.60;;
12625;SDS011;6378;42.684;23.372;2023-11-22T01:33:30;46.40;;;31.97;;
12625;SDS011;6378;42.684;23.372;2023-11-22T01:35:57;44.40;;;32.00;;
12625;SDS011;6378;42.684;23.372;2023-11-22T01:38:22;48.43;;;32.40;;
12625;SDS011;6378;42.684;23.372;2023-11-22T01:40:50;45.30;;;31.60;;
12625;SDS011;6378;42.684;23.372;2023-11-22T01:43:17;46.93;;;34.03;;
12625;SDS011;6378;42.684;23.372;2023-11-22T01:45:43;52.33;;;35.17;;
12625;SDS011;6378;42.684;23.372;2023-11-22T01:48:10;46.10;;;33.33;;
12625;SDS011;6378;42.684;23.372;2023-11-22T01:50:37;51.13;;;33.67;;
12625;SDS011;6378;42.684;23.372;2023-11-22T01:53:14;53.57;;;33.87;;
12625;SDS011;6378;42.684;23.372;2023-11-22T01:55:44;45.30;;;33.30;;
12625;SDS011;6378;42.684;23.372;2023-11-22T01:58:12;44.57;;;32.83;;
12625;SDS011;6378;42.684;23.372;2023-11-22T02:00:50;46.00;;;32.97;;
12625;SDS011;6378;42.684;23.372;2023-11-22T02:03:17;49.50;;;34.10;;
12625;SDS011;6378;42.684;23.372;2023-11-22T02:05:44;45.97;;;32.47;;
12625;SDS011;6378;42.684;23.372;2023-11-22T02:08:11;44.80;;;31.23;;
12625;SDS011;6378;42.684;23.372;2023-11-22T02:10:37;46.33;;;31.13;;
12625;SDS011;6378;42.684;23.372;2023-11-22T02:13:03;44.90;;;31.17;;
12625;SDS011;6378;42.684;23.372;2023-11-22T02:15:31;45.40;;;31.40;;
12625;SDS011;6378;42.684;23.372;2023-11-22T02:17:56;41.63;;;31.13;;
12625;SDS011;6378;42.684;23.372;2023-11-22T02:20:22;42.40;;;30.50;;
12625;SDS011;6378;42.684;23.372;2023-11-22T02:22:48;41.47;;;28.93;;
12625;SDS011;6378;42.684;23.372;2023-11-22T02:25:13;46.10;;;30.33;;
12625;SDS011;6378;42.684;23.372;2023-11-22T02:27:40;39.10;;;28.70;;
12625;SDS011;6378;42.684;23.372;2023-11-22T02:30:07;40.27;;;28.43;;
12625;SDS011;6378;42.684;23.372;2023-11-22T02:32:33;39.63;;;28.50;;
12625;SDS011;6378;42.684;23.372;2023-11-22T02:34:59;38.93;;;27.57;;
12625;SDS011;6378;42.684;23.372;2023-11-22T02:37:25;37.83;;;26.40;;
12625;SDS011;6378;42.684;23.372;2023-11-22T02:40:02;33.87;;;25.57;;
12625;SDS011;6378;42.684;23.372;2023-11-22T02:42:31;34.97;;;25.10;;
12625;SDS011;6378;42.684;23.372;2023-11-22T02:44:58;39.03;;;25.63;;
12625;SDS011;6378;42.684;23.372;2023-11-22T02:47:23;35.10;;;24.83;;
12625;SDS011;6378;42.684;23.372;2023-11-22T02:49:49;33.27;;;24.27;;
12625;SDS011;6378;42.684;23.372;2023-11-22T02:52:14;34.70;;;24.33;;
12625;SDS011;6378;42.684;23.372;2023-11-22T02:54:43;36.97;;;25.53;;
12625;SDS011;6378;42.684;23.372;2023-11-22T02:57:11;35.30;;;25.30;;
12625;SDS011;6378;42.684;23.372;2023-11-22T02:59:36;36.67;;;25.93;;
12625;SDS011;6378;42.684;23.372;2023-11-22T03:02:02;36.63;;;25.23;;
12625;SDS011;6378;42.684;23.372;2023-11-22T03:04:27;35.30;;;25.37;;
12625;SDS011;6378;42.684;23.372;2023-11-22T03:06:53;34.10;;;25.33;;
12625;SDS011;6378;42.684;23.372;2023-11-22T03:09:19;30.77;;;24.13;;
12625;SDS011;6378;42.684;23.372;2023-11-22T03:11:44;36.40;;;24.93;;
12625;SDS011;6378;42.684;23.372;2023-11-22T03:14:10;35.47;;;24.60;;
12625;SDS011;6378;42.684;23.372;2023-11-22T03:16:38;32.67;;;23.83;;
12625;SDS011;6378;42.684;23.372;2023-11-22T03:19:04;32.10;;;23.10;;
12625;SDS011;6378;42.684;23.372;2023-11-22T03:21:29;30.40;;;22.47;;
12625;SDS011;6378;42.684;23.372;2023-11-22T03:23:55;33.57;;;22.57;;
12625;SDS011;6378;42.684;23.372;2023-11-22T03:26:21;29.40;;;22.20;;
12625;SDS011;6378;42.684;23.372;2023-11-22T03:28:46;30.10;;;21.77;;
12625;SDS011;6378;42.684;23.372;2023-11-22T03:31:12;30.77;;;21.53;;
12625;SDS011;6378;42.684;23.372;2023-11-22T03:33:39;30.80;;;21.20;;
12625;SDS011;6378;42.684;23.372;2023-11-22T03:36:04;28.93;;;21.07;;
12625;SDS011;6378;42.684;23.372;2023-11-22T03:38:31;28.83;;;20.93;;
12625;SDS011;6378;42.684;23.372;2023-11-22T03:40:56;27.87;;;20.80;;
12625;SDS011;6378;42.684;23.372;2023-11-22T03:43:22;27.80;;;21.07;;
12625;SDS011;6378;42.684;23.372;2023-11-22T03:45:47;31.07;;;21.93;;
12625;SDS011;6378;42.684;23.372;2023-11-22T03:48:12;31.67;;;21.57;;
12625;SDS011;6378;42.684;23.372;2023-11-22T03:50:38;42.37;;;27.67;;
12625;SDS011;6378;42.684;23.372;2023-11-22T03:53:03;30.80;;;21.10;;
12625;SDS011;6378;42.684;23.372;2023-11-22T03:55:29;32.43;;;21.70;;
12625;SDS011;6378;42.684;23.372;2023-11-22T03:57:54;31.00;;;20.63;;
12625;SDS011;6378;42.684;23.372;2023-11-22T04:00:19;29.17;;;21.60;;
12625;SDS011;6378;42.684;23.372;2023-11-22T04:02:45;39.10;;;27.63;;
12625;SDS011;6378;42.684;23.372;2023-11-22T04:05:10;41.67;;;28.73;;
12625;SDS011;6378;42.684;23.372;2023-11-22T04:07:39;26.80;;;20.27;;
12625;SDS011;6378;42.684;23.372;2023-11-22T04:10:04;27.93;;;20.40;;
12625;SDS011;6378;42.684;23.372;2023-11-22T04:12:31;29.50;;;19.93;;
12625;SDS011;6378;42.684;23.372;2023-11-22T04:14:57;31.60;;;22.97;;
12625;SDS011;6378;42.684;23.372;2023-11-22T04:17:23;26.10;;;20.03;;
12625;SDS011;6378;42.684;23.372;2023-11-22T04:19:48;28.23;;;19.23;;
12625;SDS011;6378;42.684;23.372;2023-11-22T04:22:14;26.17;;;19.13;;
12625;SDS011;6378;42.684;23.372;2023-11-22T04:24:39;27.40;;;19.17;;
12625;SDS011;6378;42.684;23.372;2023-11-22T04:27:05;27.67;;;18.83;;
12625;SDS011;6378;42.684;23.372;2023-11-22T04:29:30;25.07;;;19.77;;
12625;SDS011;6378;42.684;23.372;2023-11-22T04:31:56;26.90;;;19.90;;
12625;SDS011;6378;42.684;23.372;2023-11-22T04:34:21;29.23;;;20.27;;
12625;SDS011;6378;42.684;23.372;2023-11-22T04:36:46;27.70;;;20.33;;
12625;SDS011;6378;42.684;23.372;2023-11-22T04:39:12;29.33;;;20.70;;
12625;SDS011;6378;42.684;23.372;2023-11-22T04:41:38;31.20;;;22.17;;
12625;SDS011;6378;42.684;23.372;2023-11-22T04:44:04;30.40;;;20.77;;
12625;SDS011;6378;42.684;23.372;2023-11-22T04:46:30;29.70;;;21.17;;
12625;SDS011;6378;42.684;23.372;2023-11-22T04:48:56;29.23;;;21.47;;
12625;SDS011;6378;42.684;23.372;2023-11-22T04:51:22;28.17;;;21.23;;
12625;SDS011;6378;42.684;23.372;2023-11-22T04:53:49;27.30;;;20.93;;
12625;SDS011;6378;42.684;23.372;2023-11-22T04:56:14;28.80;;;21.07;;
12625;SDS011;6378;42.684;23.372;2023-11-22T04:58:41;28.77;;;22.00;;
12625;SDS011;6378;42.684;23.372;2023-11-22T05:01:07;41.53;;;28.53;;
12625;SDS011;6378;42.684;23.372;2023-11-22T05:03:35;27.53;;;20.47;;
12625;SDS011;6378;42.684;23.372;2023-11-22T05:06:02;23.40;;;18.27;;
12625;SDS011;6378;42.684;23.372;2023-11-22T05:08:28;28.77;;;20.37;;
12625;SDS011;6378;42.684;23.372;2023-11-22T05:10:53;23.27;;;18.77;;
12625;SDS011;6378;42.684;23.372;2023-11-22T05:13:19;25.20;;;18.73;;
12625;SDS011;6378;42.684;23.372;2023-11-22T05:15:44;25.13;;;19.27;;
12625;SDS011;6378;42.684;23.372;2023-11-22T05:18:10;29.93;;;20.60;;
12625;SDS011;6378;42.684;23.372;2023-11-22T05:20:35;29.37;;;20.23;;
12625;SDS011;6378;42.684;23.372;2023-11-22T05:23:01;26.90;;;20.00;;
12625;SDS011;6378;42.684;23.372;2023-11-22T05:25:26;26.83;;;19.80;;
12625;SDS011;6378;42.684;23.372;2023-11-22T05:27:52;25.47;;;18.87;;
12625;SDS011;6378;42.684;23.372;2023-11-22T05:30:17;25.07;;;19.83;;
12625;SDS011;6378;42.684;23.372;2023-11-22T05:32:43;27.10;;;20.03;;
12625;SDS011;6378;42.684;23.372;2023-11-22T05:35:08;26.67;;;20.23;;
12625;SDS011;6378;42.684;23.372;2023-11-22T05:37:35;30.93;;;22.77;;
12625;SDS011;6378;42.684;23.372;2023-11-22T05:40:02;29.33;;;21.23;;
12625;SDS011;6378;42.684;23.372;2023-11-22T05:42:28;26.00;;;20.97;;
12625;SDS011;6378;42.684;23.372;2023-11-22T05:44:53;31.37;;;20.80;;
12625;SDS011;6378;42.684;23.372;2023-11-22T05:47:19;30.77;;;21.80;;
12625;SDS011;6378;42.684;23.372;2023-11-22T05:49:44;33.17;;;23.90;;
12625;SDS011;6378;42.684;23.372;2023-11-22T05:52:10;28.23;;;22.13;;
12625;SDS011;6378;42.684;23.372;2023-11-22T05:54:35;28.77;;;21.00;;
12625;SDS011;6378;42.684;23.372;2023-11-22T05:57:01;30.50;;;22.17;;
12625;SDS011;6378;42.684;23.372;2023-11-22T05:59:27;32.27;;;23.37;;
12625;SDS011;6378;42.684;23.372;2023-11-22T06:01:53;47.87;;;32.57;;
12625;SDS011;6378;42.684;23.372;2023-11-22T06:04:18;36.23;;;27.07;;
12625;SDS011;6378;42.684;23.372;2023-11-22T06:06:44;30.63;;;22.43;;
12625;SDS011;6378;42.684;23.372;2023-11-22T06:09:09;30.50;;;23.50;;
12625;SDS011;6378;42.684;23.372;2023-11-22T06:11:39;30.67;;;24.10;;
12625;SDS011;6378;42.684;23.372;2023-11-22T06:14:04;29.57;;;23.27;;
12625;SDS011;6378;42.684;23.372;2023-11-22T06:16:29;35.87;;;25.20;;
12625;SDS011;6378;42.684;23.372;2023-11-22T06:18:55;26.00;;;21.07;;
12625;SDS011;6378;42.684;23.372;2023-11-22T06:21:20;34.83;;;20.93;;
12625;SDS011;6378;42.684;23.372;2023-11-22T06:23:46;29.57;;;23.50;;
12625;SDS011;6378;42.684;23.372;2023-11-22T06:26:11;33.70;;;23.03;;
12625;SDS011;6378;42.684;23.372;2023-11-22T06:28:37;35.47;;;27.33;;
12625;SDS011;6378;42.684;23.372;2023-11-22T06:31:02;56.70;;;36.37;;
12625;SDS011;6378;42.684;23.372;2023-11-22T06:33:28;35.17;;;25.87;;
12625;SDS011;6378;42.684;23.372;2023-11-22T06:35:54;37.37;;;25.13;;
12625;SDS011;6378;42.684;23.372;2023-11-22T06:38:19;37.77;;;26.87;;
12625;SDS011;6378;42.684;23.372;2023-11-22T06:40:44;32.40;;;24.20;;
12625;SDS011;6378;42.684;23.372;2023-11-22T06:43:10;25.83;;;21.33;;
12625;SDS011;6378;42.684;23.372;2023-11-22T06:45:36;30.40;;;21.90;;
12625;SDS011;6378;42.684;23.372;2023-11-22T06:48:02;27.93;;;22.33;;
12625;SDS011;6378;42.684;23.372;2023-11-22T06:50:27;27.90;;;21.03;;
12625;SDS011;6378;42.684;23.372;2023-11-22T06:52:53;27.17;;;21.17;;
12625;SDS011;6378;42.684;23.372;2023-11-22T06:55:19;36.63;;;24.47;;
12625;SDS011;6378;42.684;23.372;2023-11-22T06:57:45;30.60;;;21.90;;
12625;SDS011;6378;42.684;23.372;2023-11-22T07:00:10;31.73;;;22.73;;
12625;SDS011;6378;42.684;23.372;2023-11-22T07:02:37;32.83;;;21.70;;
12625;SDS011;6378;42.684;23.372;2023-11-22T07:05:03;28.33;;;22.30;;
12625;SDS011;6378;42.684;23.372;2023-11-22T07:07:33;29.20;;;21.10;;
12625;SDS011;6378;42.684;23.372;2023-11-22T07:09:59;28.77;;;20.97;;
12625;SDS011;6378;42.684;23.372;2023-11-22T07:12:25;28.97;;;20.90;;
12625;SDS011;6378;42.684;23.372;2023-11-22T07:14:51;32.30;;;22.27;;
12625;SDS011;6378;42.684;23.372;2023-11-22T07:17:17;39.37;;;25.50;;
12625;SDS011;6378;42.684;23.372;2023-11-22T07:19:43;33.63;;;22.27;;
12625;SDS011;6378;42.684;23.372;2023-11-22T07:22:14;32.20;;;22.23;;
12625;SDS011;6378;42.684;23.372;2023-11-22T07:24:44;32.43;;;23.50;;
12625;SDS011;6378;42.684;23.372;2023-11-22T07:27:12;29.93;;;21.93;;
12625;SDS011;6378;42.684;23.372;2023-11-22T07:29:42;31.13;;;21.97;;
12625;SDS011;6378;42.684;23.372;2023-11-22T07:32:08;31.23;;;22.23;;
12625;SDS011;6378;42.684;23.372;2023-11-22T07:34:35;28.73;;;22.13;;
12625;SDS011;6378;42.684;23.372;2023-11-22T07:37:01;35.57;;;25.37;;
12625;SDS011;6378;42.684;23.372;2023-11-22T07:39:27;30.30;;;22.50;;
12625;SDS011;6378;42.684;23.372;2023-11-22T07:41:55;27.93;;;21.33;;
12625;SDS011;6378;42.684;23.372;2023-11-22T07:44:24;26.73;;;19.67;;
12625;SDS011;6378;42.684;23.372;2023-11-22T07:46:50;31.23;;;23.40;;
12625;SDS011;6378;42.684;23.372;2023-11-22T07:49:16;28.10;;;21.73;;
12625;SDS011;6378;42.684;23.372;2023-11-22T07:51:43;25.93;;;19.77;;
12625;SDS011;6378;42.684;23.372;2023-11-22T07:54:10;30.60;;;23.30;;
12625;SDS011;6378;42.684;23.372;2023-11-22T07:56:40;24.27;;;19.17;;
12625;SDS011;6378;42.684;23.372;2023-11-22T07:59:09;26.00;;;19.00;;
12625;SDS011;6378;42.684;23.372;2023-11-22T08:01:38;23.87;;;19.03;;
12625;SDS011;6378;42.684;23.372;2023-11-22T08:04:03;26.00;;;19.60;;
12625;SDS011;6378;42.684;23.372;2023-11-22T08:06:31;23.47;;;18.50;;
12625;SDS011;6378;42.684;23.372;2023-11-22T08:08:56;29.90;;;20.83;;
12625;SDS011;6378;42.684;23.372;2023-11-22T08:11:26;30.97;;;21.47;;
12625;SDS011;6378;42.684;23.372;2023-11-22T08:13:52;28.97;;;21.33;;
12625;SDS011;6378;42.684;23.372;2023-11-22T08:16:20;27.67;;;20.33;;
12625;SDS011;6378;42.684;23.372;2023-11-22T08:18:45;27.17;;;20.07;;
12625;SDS011;6378;42.684;23.372;2023-11-22T08:21:11;28.90;;;20.77;;
12625;SDS011;6378;42.684;23.372;2023-11-22T08:23:37;27.63;;;21.57;;
12625;SDS011;6378;42.684;23.372;2023-11-22T08:26:02;29.87;;;24.93;;
12625;SDS011;6378;42.684;23.372;2023-11-22T08:28:29;34.17;;;28.37;;
12625;SDS011;6378;42.684;23.372;2023-11-22T08:30:55;35.83;;;26.47;;
12625;SDS011;6378;42.684;23.372;2023-11-22T08:33:21;36.77;;;27.17;;
12625;SDS011;6378;42.684;23.372;2023-11-22T08:35:47;37.00;;;27.10;;
12625;SDS011;6378;42.684;23.372;2023-11-22T08:38:16;37.70;;;27.67;;
12625;SDS011;6378;42.684;23.372;2023-11-22T08:40:42;37.60;;;27.07;;
12625;SDS011;6378;42.684;23.372;2023-11-22T08:43:07;40.63;;;30.73;;
12625;SDS011;6378;42.684;23.372;2023-11-22T08:45:33;39.93;;;28.63;;
12625;SDS011;6378;42.684;23.372;2023-11-22T08:48:00;35.67;;;28.30;;
12625;SDS011;6378;42.684;23.372;2023-11-22T08:50:25;36.93;;;28.40;;
12625;SDS011;6378;42.684;23.372;2023-11-22T08:52:50;35.80;;;25.57;;
12625;SDS011;6378;42.684;23.372;2023-11-22T08:55:19;31.40;;;24.40;;
12625;SDS011;6378;42.684;23.372;2023-11-22T08:57:49;32.87;;;25.17;;
12625;SDS011;6378;42.684;23.372;2023-11-22T09:00:16;34.97;;;25.23;;
12625;SDS011;6378;42.684;23.372;2023-11-22T09:02:47;29.53;;;22.60;;
12625;SDS011;6378;42.684;23.372;2023-11-22T09:05:13;32.63;;;21.40;;
12625;SDS011;6378;42.684;23.372;2023-11-22T09:07:41;25.43;;;20.53;;
12625;SDS011;6378;42.684;23.372;2023-11-22T09:10:06;27.10;;;20.93;;
12625;SDS011;6378;42.684;23.372;2023-11-22T09:12:36;25.87;;;19.57;;
12625;SDS011;6378;42.684;23.372;2023-11-22T09:15:04;28.47;;;20.97;;
12625;SDS011;6378;42.684;23.372;2023-11-22T09:17:34;29.47;;;22.17;;
12625;SDS011;6378;42.684;23.372;2023-11-22T09:20:15;36.33;;;23.90;;
12625;SDS011;6378;42.684;23.372;2023-11-22T09:22:45;32.33;;;24.97;;
12625;SDS011;6378;42.684;23.372;2023-11-22T09:25:15;38.23;;;26.57;;
12625;SDS011;6378;42.684;23.372;2023-11-22T09:27:49;33.53;;;24.73;;
12625;SDS011;6378;42.684;23.372;2023-11-22T09:30:18;28.13;;;21.80;;
12625;SDS011;6378;42.684;23.372;2023-11-22T09:33:00;28.40;;;21.43;;
12625;SDS011;6378;42.684;23.372;2023-11-22T09:35:27;31.10;;;21.57;;
12625;SDS011;6378;42.684;23.372;2023-11-22T09:38:03;43.40;;;30.20;;
12625;SDS011;6378;42.684;23.372;2023-11-22T09:40:34;30.20;;;22.80;;
12625;SDS011;6378;42.684;23.372;2023-11-22T09:43:01;27.47;;;20.90;;
12625;SDS011;6378;42.684;23.372;2023-11-22T09:45:27;30.03;;;21.00;;
12625;SDS011;6378;42.684;23.372;2023-11-22T09:47:54;25.77;;;19.40;;
12625;SDS011;6378;42.684;23.372;2023-11-22T09:50:23;26.20;;;20.83;;
12625;SDS011;6378;42.684;23.372;2023-11-22T09:52:55;29.13;;;21.37;;
12625;SDS011;6378;42.684;23.372;2023-11-22T09:55:26;25.50;;;21.47;;
12625;SDS011;6378;42.684;23.372;2023-11-22T09:57:53;43.40;;;31.03;;
12625;SDS011;6378;42.684;23.372;2023-11-22T10:00:20;29.33;;;23.03;;
12625;SDS011;6378;42.684;23.372;2023-11-22T10:02:47;31.67;;;22.97;;
12625;SDS011;6378;42.684;23.372;2023-11-22T10:05:13;29.60;;;23.60;;
12625;SDS011;6378;42.684;23.372;2023-11-22T10:07:39;30.50;;;23.07;;
12625;SDS011;6378;42.684;23.372;2023-11-22T10:10:04;29.47;;;22.10;;
12625;SDS011;6378;42.684;23.372;2023-11-22T10:12:31;27.40;;;21.43;;
12625;SDS011;6378;42.684;23.372;2023-11-22T10:15:13;39.67;;;27.77;;
12625;SDS011;6378;42.684;23.372;2023-11-22T10:17:47;27.20;;;21.47;;
12625;SDS011;6378;42.684;23.372;2023-11-22T10:20:21;29.13;;;22.10;;
12625;SDS011;6378;42.684;23.372;2023-11-22T10:22:51;45.13;;;30.53;;
12625;SDS011;6378;42.684;23.372;2023-11-22T10:25:17;32.33;;;24.53;;
12625;SDS011;6378;42.684;23.372;2023-11-22T10:27:46;31.17;;;24.17;;
12625;SDS011;6378;42.684;23.372;2023-11-22T10:30:12;28.50;;;22.40;;
12625;SDS011;6378;42.684;23.372;2023-11-22T10:32:40;27.17;;;22.23;;
12625;SDS011;6378;42.684;23.372;2023-11-22T10:35:06;28.87;;;23.50;;
12625;SDS011;6378;42.684;23.372;2023-11-22T10:37:35;36.20;;;25.10;;
12625;SDS011;6378;42.684;23.372;2023-11-22T10:40:01;34.63;;;24.63;;
12625;SDS011;6378;42.684;23.372;2023-11-22T10:42:27;33.13;;;24.13;;
12625;SDS011;6378;42.684;23.372;2023-11-22T10:44:55;33.60;;;24.43;;
12625;SDS011;6378;42.684;23.372;2023-11-22T10:47:24;31.03;;;23.47;;
12625;SDS011;6378;42.684;23.372;2023-11-22T10:49:52;33.23;;;23.33;;
12625;SDS011;6378;42.684;23.372;2023-11-22T10:52:18;33.30;;;24.60;;
12625;SDS011;6378;42.684;23.372;2023-11-22T10:54:49;32.83;;;24.52;;
12625;SDS011;6378;42.684;23.372;2023-11-22T10:57:16;29.43;;;23.10;;
12625;SDS011;6378;42.684;23.372;2023-11-22T10:59:44;33.17;;;22.77;;
12625;SDS011;6378;42.684;23.372;2023-11-22T11:02:17;32.90;;;24.35;;
12625;SDS011;6378;42.684;23.372;2023-11-22T11:04:47;30.27;;;23.07;;
12625;SDS011;6378;42.684;23.372;2023-11-22T11:07:24;28.67;;;22.50;;
12625;SDS011;6378;42.684;23.372;2023-11-22T11:09:55;30.20;;;23.00;;
12625;SDS011;6378;42.684;23.372;2023-11-22T11:12:22;27.73;;;21.63;;
12625;SDS011;6378;42.684;23.372;2023-11-22T11:14:48;30.57;;;23.33;;
12625;SDS011;6378;42.684;23.372;2023-11-22T11:17:14;32.13;;;23.30;;
12625;SDS011;6378;42.684;23.372;2023-11-22T11:19:41;31.13;;;23.93;;
12625;SDS011;6378;42.684;23.372;2023-11-22T11:22:10;32.33;;;24.30;;
12625;SDS011;6378;42.684;23.372;2023-11-22T11:24:39;26.38;;;21.20;;
12625;SDS011;6378;42.684;23.372;2023-11-22T11:27:06;28.45;;;22.33;;
12625;SDS011;6378;42.684;23.372;2023-11-22T11:29:35;29.10;;;22.23;;
12625;SDS011;6378;42.684;23.372;2023-11-22T11:32:08;28.10;;;21.95;;
12625;SDS011;6378;42.684;23.372;2023-11-22T11:34:48;31.13;;;22.90;;
12625;SDS011;6378;42.684;23.372;2023-11-22T11:37:19;35.07;;;25.10;;
12625;SDS011;6378;42.684;23.372;2023-11-22T11:39:45;33.33;;;25.40;;
12625;SDS011;6378;42.684;23.372;2023-11-22T11:42:11;32.20;;;25.53;;
12625;SDS011;6378;42.684;23.372;2023-11-22T11:44:47;37.10;;;27.57;;
12625;SDS011;6378;42.684;23.372;2023-11-22T11:47:24;32.17;;;25.03;;
12625;SDS011;6378;42.684;23.372;2023-11-22T11:49:50;35.07;;;25.70;;
12625;SDS011;6378;42.684;23.372;2023-11-22T11:52:15;33.73;;;25.97;;
12625;SDS011;6378;42.684;23.372;2023-11-22T11:54:41;34.72;;;25.02;;
12625;SDS011;6378;42.684;23.372;2023-11-22T11:57:06;37.07;;;26.33;;
12625;SDS011;6378;42.684;23.372;2023-11-22T11:59:33;37.30;;;26.23;;
12625;SDS011;6378;42.684;23.372;2023-11-22T12:02:00;35.97;;;25.63;;
12625;SDS011;6378;42.684;23.372;2023-11-22T12:04:25;38.17;;;27.58;;
12625;SDS011;6378;42.684;23.372;2023-11-22T12:06:51;34.30;;;25.25;;
12625;SDS011;6378;42.684;23.372;2023-11-22T12:09:26;35.38;;;25.50;;
12625;SDS011;6378;42.684;23.372;2023-11-22T12:11:54;34.60;;;25.02;;
12625;SDS011;6378;42.684;23.372;2023-11-22T12:14:20;36.03;;;25.90;;
12625;SDS011;6378;42.684;23.372;2023-11-22T12:16:46;34.83;;;22.50;;
12625;SDS011;6378;42.684;23.372;2023-11-22T12:19:22;29.10;;;21.85;;
12625;SDS011;6378;42.684;23.372;2023-11-22T12:21:49;28.58;;;21.88;;
12625;SDS011;6378;42.684;23.372;2023-11-22T12:24:15;28.55;;;22.02;;
12625;SDS011;6378;42.684;23.372;2023-11-22T12:26:44;27.27;;;22.63;;
12625;SDS011;6378;42.684;23.372;2023-11-22T12:29:13;28.83;;;22.25;;
12625;SDS011;6378;42.684;23.372;2023-11-22T12:31:51;28.55;;;22.90;;
12625;SDS011;6378;42.684;23.372;2023-11-22T12:34:22;33.08;;;24.25;;
12625;SDS011;6378;42.684;23.372;2023-11-22T12:36:48;35.85;;;25.65;;
12625;SDS011;6378;42.684;23.372;2023-11-22T12:39:14;37.83;;;30.58;;
12625;SDS011;6378;42.684;23.372;2023-11-22T12:41:43;41.85;;;34.38;;
12625;SDS011;6378;42.684;23.372;2023-11-22T12:44:10;41.83;;;33.37;;
12625;SDS011;6378;42.684;23.372;2023-11-22T12:49:42;36.35;;;26.65;;
12625;SDS011;6378;42.684;23.372;2023-11-22T12:52:10;41.80;;;30.77;;
12625;SDS011;6378;42.684;23.372;2023-11-22T12:54:37;38.23;;;26.50;;
12625;SDS011;6378;42.684;23.372;2023-11-22T12:57:03;35.03;;;25.80;;
12625;SDS011;6378;42.684;23.372;2023-11-22T12:59:36;33.53;;;24.48;;
12625;SDS011;6378;42.684;23.372;2023-11-22T13:02:02;32.50;;;24.05;;
12625;SDS011;6378;42.684;23.372;2023-11-22T13:04:27;31.98;;;22.92;;
12625;SDS011;6378;42.684;23.372;2023-11-22T13:06:54;33.55;;;24.85;;
12625;SDS011;6378;42.684;23.372;2023-11-22T13:09:20;34.38;;;24.95;;
12625;SDS011;6378;42.684;23.372;2023-11-22T13:11:45;35.30;;;23.58;;
12625;SDS011;6378;42.684;23.372;2023-11-22T13:14:11;31.70;;;23.55;;
12625;SDS011;6378;42.684;23.372;2023-11-22T13:16:39;29.80;;;22.57;;
12625;SDS011;6378;42.684;23.372;2023-11-22T13:19:05;28.85;;;21.55;;
12625;SDS011;6378;42.684;23.372;2023-11-22T13:21:31;25.20;;;20.60;;
12625;SDS011;6378;42.684;23.372;2023-11-22T13:23:56;28.45;;;20.58;;
12625;SDS011;6378;42.684;23.372;2023-11-22T13:26:24;27.00;;;20.20;;
12625;SDS011;6378;42.684;23.372;2023-11-22T13:28:50;23.73;;;19.33;;
12625;SDS011;6378;42.684;23.372;2023-11-22T13:31:17;27.55;;;19.67;;
12625;SDS011;6378;42.684;23.372;2023-11-22T13:33:42;24.50;;;19.42;;
12625;SDS011;6378;42.684;23.372;2023-11-22T13:36:09;25.90;;;19.73;;
12625;SDS011;6378;42.684;23.372;2023-11-22T13:38:35;28.70;;;24.05;;
12625;SDS011;6378;42.684;23.372;2023-11-22T13:41:02;25.65;;;20.73;;
12625;SDS011;6378;42.684;23.372;2023-11-22T13:43:27;29.75;;;19.38;;
12625;SDS011;6378;42.684;23.372;2023-11-22T13:45:54;24.48;;;19.02;;
12625;SDS011;6378;42.684;23.372;2023-11-22T13:48:19;24.23;;;17.17;;
12625;SDS011;6378;42.684;23.372;2023-11-22T13:50:45;22.17;;;17.08;;
12625;SDS011;6378;42.684;23.372;2023-11-22T13:53:10;21.40;;;16.88;;
12625;SDS011;6378;42.684;23.372;2023-11-22T13:55:36;23.80;;;17.92;;
12625;SDS011;6378;42.684;23.372;2023-11-22T13:58:02;26.50;;;18.23;;
12625;SDS011;6378;42.684;23.372;2023-11-22T14:00:29;23.90;;;18.73;;
12625;SDS011;6378;42.684;23.372;2023-11-22T14:03:01;26.70;;;18.73;;
12625;SDS011;6378;42.684;23.372;2023-11-22T14:05:36;28.75;;;19.67;;
12625;SDS011;6378;42.684;23.372;2023-11-22T14:08:03;27.60;;;19.70;;
12625;SDS011;6378;42.684;23.372;2023-11-22T14:10:29;23.50;;;18.33;;
12625;SDS011;6378;42.684;23.372;2023-11-22T14:12:55;26.10;;;18.30;;
12625;SDS011;6378;42.684;23.372;2023-11-22T14:15:25;21.50;;;16.55;;
12625;SDS011;6378;42.684;23.372;2023-11-22T14:17:52;22.25;;;15.23;;
12625;SDS011;6378;42.684;23.372;2023-11-22T14:20:18;21.43;;;14.13;;
12625;SDS011;6378;42.684;23.372;2023-11-22T14:22:46;18.23;;;12.30;;